Airfield :
LOGIN :

Register | Disclaimer

   EN    FR    IT 

 










Legend :    VFR   Marginal VFR   IFR   Intensive IFR   Very Intensive IFR
Visi :
Ceiling :
>= 8 km
>= 3000ft
5 to 8 km
1000 to 3000 ft
1500m to 5 km
500 to 1000 ft
800 to 1500m
200 to 500 ft
< 800m
< 200 ft
Symbols :   Thunderstorms  Fog  Heavy snow  Heavy precipitations  Wind > 20 kt
SIGMETs :     Misc.  Thunderstorms  Icing  Turbulence  Mountain Waves  Volcanic Ashes






- Airport Elevation : 1674 ft
- IATA code : BRN


LSZB - Bern Belp

CURRENT METAR :
  • 162220Z AUTO VRB02KT 9999 FEW075 OVC120 14/13 Q1014

EXPIRED METARs :
  • 162150Z AUTO 10004KT 9999 FEW075 BKN100 14/13 Q1014
  • 162120Z AUTO VRB01KT 9999 FEW090 SCT100 15/12 Q1014
  • 162050Z AUTO VRB02KT 9999 BKN100 15/13 Q1013
  • 162020Z AUTO VRB01KT 9999 BKN095 16/12 Q1013
  • 161950Z 26002KT 9999 FEW100 19/11 Q1013
  • 161920Z 27006KT 230V300 9999 FEW140 20/10 Q1012
  • 161850Z 26005KT 9999 SCT110 21/10 Q1012
  • 161820Z 25005KT 9999 FEW060 SCT110 21/10 Q1012
  • 161750Z 27006KT 220V310 9999 FEW060 BKN110 22/11 Q1012

TAF TAF LSZB
Valid from the 16 at 15:00 until the 17 at 00:00 UTC


161425Z 1615/1624 28006KT 9999 FEW045 SCT100
BECMG 1617/1619 VRB02KT
ATIS : +41 22 417 40 76



MET'MAP, your aeronautical weather chart ! - Copyright ORBIFLY December 2007 - Disclaimer

ORBIFLY MET'MAP TEAM :

Programming & Development : Alexandra Zaïnal
Original concept : Baudouin d'Aumeries
Technical & hardware support : Manuel Goepfert
Assistance : Marc-Olivier Méhu




SOURCES & CREDITS :

   NOAA